Time,TemperatureF,DewpointF,PressureIn,WindDirection,WindDirectionDegrees,WindSpeedMPH,WindSpeedGustMPH,Humidity,HourlyPrecipIn,Conditions,Clouds,dailyrainin,SoftwareType,DateUTC
2013-02-12 00:01:00,38.0,28.0,30.16,WNW,286,0.0,4.0,67,0.00,,,0.00,,2013-02-12 06:01:00,
2013-02-12 00:12:00,37.0,28.0,30.17,WNW,286,0.0,0.0,71,0.00,,,0.00,,2013-02-12 06:12:00,
2013-02-12 00:21:00,37.0,28.0,30.17,WNW,286,0.0,0.0,71,0.00,,,0.00,,2013-02-12 06:21:00,
2013-02-12 00:32:00,35.0,28.0,30.16,WNW,286,0.0,0.0,75,0.00,,,0.00,,2013-02-12 06:32:00,
2013-02-12 00:42:00,35.0,28.0,30.16,WNW,286,0.0,1.0,75,0.00,,,0.00,,2013-02-12 06:42:00,
2013-02-12 00:52:00,35.0,28.0,30.16,WNW,286,0.0,1.0,75,0.00,,,0.00,,2013-02-12 06:52:00,
2013-02-12 01:01:00,34.0,28.0,30.17,WNW,286,0.0,0.0,77,0.00,,,0.00,,2013-02-12 07:01:00,
2013-02-12 01:11:00,34.0,28.0,30.17,WNW,286,0.0,0.0,77,0.00,,,0.00,,2013-02-12 07:11:00,
2013-02-12 01:21:00,34.0,28.0,30.17,WNW,286,0.0,0.0,77,0.00,,,0.00,,2013-02-12 07:21:00,
2013-02-12 01:31:00,34.0,28.0,30.17,WNW,286,0.0,1.0,78,0.00,,,0.00,,2013-02-12 07:31:00,
2013-02-12 01:41:00,34.0,28.0,30.17,WNW,286,0.0,1.0,78,0.00,,,0.00,,2013-02-12 07:41:00,
2013-02-12 01:51:00,32.0,26.0,30.17,WNW,286,0.0,1.0,79,0.00,,,0.00,,2013-02-12 07:51:00,
2013-02-12 02:01:00,34.0,28.0,30.18,WNW,286,0.0,4.0,78,0.00,,,0.00,,2013-02-12 08:01:00,
2013-02-12 02:11:00,34.0,28.0,30.18,WNW,286,0.0,4.0,78,0.00,,,0.00,,2013-02-12 08:11:00,
2013-02-12 02:21:00,35.0,28.0,30.18,WNW,286,0.0,2.0,74,0.00,,,0.00,,2013-02-12 08:21:00,
2013-02-12 02:32:00,35.0,28.0,30.18,WNW,286,0.0,1.0,74,0.00,,,0.00,,2013-02-12 08:32:00,
2013-02-12 02:41:00,35.0,28.0,30.18,WNW,286,0.0,1.0,74,0.00,,,0.00,,2013-02-12 08:41:00,
2013-02-12 02:52:00,35.0,28.0,30.18,WNW,286,0.0,2.0,74,0.00,,,0.00,,2013-02-12 08:52:00,
2013-02-12 03:01:00,34.0,28.0,30.17,WNW,286,0.0,0.0,77,0.00,,,0.00,,2013-02-12 09:01:00,
2013-02-12 03:11:00,34.0,28.0,30.17,WNW,286,0.0,0.0,77,0.00,,,0.00,,2013-02-12 09:11:00,
2013-02-12 03:21:00,33.0,27.0,30.17,WNW,286,0.0,0.0,77,0.00,,,0.00,,2013-02-12 09:21:00,
2013-02-12 03:32:00,33.0,27.0,30.17,WNW,286,0.0,0.0,78,0.00,,,0.00,,2013-02-12 09:32:00,
2013-02-12 03:42:00,33.0,27.0,30.17,WNW,286,0.0,0.0,78,0.00,,,0.00,,2013-02-12 09:42:00,
2013-02-12 03:51:00,31.0,26.0,30.17,WNW,286,0.0,0.0,81,0.00,,,0.00,,2013-02-12 09:51:00,
2013-02-12 04:01:00,30.0,26.0,30.17,WNW,286,0.0,0.0,85,0.00,,,0.00,,2013-02-12 10:01:00,
2013-02-12 04:11:00,29.0,26.0,30.17,WNW,286,0.0,0.0,87,0.00,,,0.00,,2013-02-12 10:11:00,
2013-02-12 04:21:00,29.0,26.0,30.17,WNW,286,0.0,0.0,87,0.00,,,0.00,,2013-02-12 10:21:00,
2013-02-12 04:31:00,30.0,27.0,30.17,WNW,286,0.0,0.0,88,0.00,,,0.00,,2013-02-12 10:31:00,
2013-02-12 04:43:00,30.0,27.0,30.17,WNW,286,0.0,0.0,88,0.00,,,0.00,,2013-02-12 10:43:00,
2013-02-12 04:51:00,29.0,26.0,30.17,WNW,286,0.0,0.0,88,0.00,,,0.00,,2013-02-12 10:51:00,
2013-02-12 05:01:00,29.0,26.0,30.18,WNW,286,0.0,0.0,89,0.00,,,0.00,,2013-02-12 11:01:00,
2013-02-12 05:11:00,29.0,26.0,30.18,WNW,286,0.0,0.0,89,0.00,,,0.00,,2013-02-12 11:11:00,
2013-02-12 05:21:00,28.0,25.0,30.17,WNW,286,0.0,0.0,90,0.00,,,0.00,,2013-02-12 11:21:00,
2013-02-12 05:32:00,28.0,26.0,30.17,WNW,286,0.0,0.0,91,0.00,,,0.00,,2013-02-12 11:32:00,
2013-02-12 05:41:00,28.0,26.0,30.17,WNW,286,0.0,0.0,91,0.00,,,0.00,,2013-02-12 11:41:00,
2013-02-12 05:52:00,28.0,26.0,30.18,WNW,286,0.0,1.0,91,0.00,,,0.00,,2013-02-12 11:52:00,
2013-02-12 06:01:00,27.0,25.0,30.18,WNW,286,0.0,0.0,91,0.00,,,0.00,,2013-02-12 12:01:00,
2013-02-12 06:11:00,27.0,25.0,30.18,WNW,286,0.0,0.0,91,0.00,,,0.00,,2013-02-12 12:11:00,
2013-02-12 06:21:00,27.0,25.0,30.18,WNW,286,0.0,0.0,91,0.00,,,0.00,,2013-02-12 12:21:00,
2013-02-12 06:32:00,28.0,26.0,30.19,WNW,286,0.0,0.0,92,0.00,,,0.00,,2013-02-12 12:32:00,
2013-02-12 06:42:00,28.0,26.0,30.19,WNW,286,0.0,0.0,92,0.00,,,0.00,,2013-02-12 12:42:00,
2013-02-12 06:52:00,27.0,25.0,30.18,WNW,286,0.0,0.0,92,0.00,,,0.00,,2013-02-12 12:52:00,
2013-02-12 07:01:00,27.0,25.0,30.18,WNW,286,0.0,0.0,92,0.00,,,0.00,,2013-02-12 13:01:00,
2013-02-12 07:11:00,27.0,25.0,30.18,WNW,286,0.0,1.0,91,0.00,,,0.00,,2013-02-12 13:11:00,
2013-02-12 07:22:00,27.0,25.0,30.18,WNW,286,0.0,1.0,91,0.00,,,0.00,,2013-02-12 13:22:00,
2013-02-12 07:32:00,28.0,26.0,30.19,WNW,286,0.0,1.0,93,0.00,,,0.00,,2013-02-12 13:32:00,
2013-02-12 07:42:00,28.0,26.0,30.19,WNW,286,0.0,1.0,93,0.00,,,0.00,,2013-02-12 13:42:00,
2013-02-12 07:51:00,29.0,27.0,30.19,WNW,286,0.0,0.0,92,0.00,,,0.00,,2013-02-12 13:51:00,
2013-02-12 08:01:00,30.0,28.0,30.18,WNW,286,0.0,0.0,92,0.00,,,0.00,,2013-02-12 14:01:00,
2013-02-12 08:12:00,30.0,28.0,30.18,WNW,286,0.0,0.0,92,0.00,,,0.00,,2013-02-12 14:12:00,
2013-02-12 08:21:00,31.0,28.0,30.19,WNW,286,0.0,0.0,90,0.00,,,0.00,,2013-02-12 14:21:00,
2013-02-12 08:32:00,31.0,28.0,30.18,WNW,286,0.0,2.0,89,0.00,,,0.00,,2013-02-12 14:32:00,
2013-02-12 08:42:00,31.0,28.0,30.18,WNW,286,0.0,2.0,89,0.00,,,0.00,,2013-02-12 14:42:00,
2013-02-12 08:52:00,33.0,30.0,30.19,South,180,1.0,3.0,88,0.00,,,0.00,,2013-02-12 14:52:00,
2013-02-12 09:02:00,35.0,31.0,30.19,South,180,0.0,0.0,85,0.00,,,0.00,,2013-02-12 15:02:00,
2013-02-12 09:11:00,35.0,30.0,30.19,South,180,0.0,4.0,82,0.00,,,0.00,,2013-02-12 15:11:00,
2013-02-12 09:21:00,35.0,30.0,30.19,South,180,0.0,4.0,82,0.00,,,0.00,,2013-02-12 15:21:00,
2013-02-12 09:32:00,36.0,31.0,30.19,South,180,1.0,3.0,81,0.00,,,0.00,,2013-02-12 15:32:00,
2013-02-12 09:42:00,36.0,31.0,30.19,South,180,1.0,3.0,81,0.00,,,0.00,,2013-02-12 15:42:00,
2013-02-12 09:52:00,37.0,32.0,30.20,SSW,197,2.0,5.0,81,0.00,,,0.00,,2013-02-12 15:52:00,
2013-02-12 10:01:00,38.0,31.0,30.19,SSW,212,0.0,4.0,76,0.00,,,0.00,,2013-02-12 16:01:00,
2013-02-12 10:11:00,38.0,31.0,30.19,SSW,212,0.0,4.0,76,0.00,,,0.00,,2013-02-12 16:11:00,
2013-02-12 10:22:00,39.0,31.0,30.19,SSW,213,0.0,2.0,74,0.00,,,0.00,,2013-02-12 16:22:00,
2013-02-12 10:32:00,40.0,31.0,30.19,WSW,256,0.0,5.0,71,0.00,,,0.00,,2013-02-12 16:32:00,
2013-02-12 10:41:00,40.0,31.0,30.19,WSW,256,0.0,5.0,71,0.00,,,0.00,,2013-02-12 16:41:00,
2013-02-12 10:51:00,40.0,30.0,30.16,WNW,293,2.0,6.0,68,0.00,,,0.00,,2013-02-12 16:51:00,
2013-02-12 11:01:00,41.0,32.0,30.14,NNW,338,5.0,9.0,70,0.00,,,0.00,,2013-02-12 17:01:00,
2013-02-12 11:12:00,41.0,32.0,30.14,NNW,338,5.0,9.0,70,0.00,,,0.00,,2013-02-12 17:12:00,
2013-02-12 11:21:00,41.0,32.0,30.14,NNW,346,4.0,9.0,70,0.00,,,0.00,,2013-02-12 17:21:00,
2013-02-12 11:32:00,41.0,30.0,30.14,NNW,345,6.0,10.0,65,0.00,,,0.00,,2013-02-12 17:32:00,
2013-02-12 11:42:00,41.0,30.0,30.14,NNW,345,6.0,10.0,65,0.00,,,0.00,,2013-02-12 17:42:00,
2013-02-12 11:52:00,41.0,30.0,30.14,NNW,345,6.0,10.0,65,0.00,,,0.00,,2013-02-12 17:52:00,
2013-02-12 12:01:00,42.0,31.0,30.14,North,355,5.0,10.0,65,0.00,,,0.00,,2013-02-12 18:01:00,
2013-02-12 12:11:00,42.0,31.0,30.14,North,355,5.0,10.0,65,0.00,,,0.00,,2013-02-12 18:11:00,
2013-02-12 12:23:00,42.0,31.0,30.15,NW,305,0.0,6.0,64,0.00,,,0.00,,2013-02-12 18:23:00,
2013-02-12 12:31:00,43.0,32.0,30.13,NNW,331,2.0,6.0,65,0.00,,,0.00,,2013-02-12 18:31:00,
2013-02-12 12:41:00,43.0,32.0,30.13,NNW,331,2.0,6.0,65,0.00,,,0.00,,2013-02-12 18:41:00,
2013-02-12 12:51:00,43.0,33.0,30.13,NNW,333,4.0,7.0,67,0.00,,,0.00,,2013-02-12 18:51:00,
2013-02-12 13:02:00,44.0,33.0,30.13,SW,215,0.0,6.0,64,0.00,,,0.00,,2013-02-12 19:02:00,
2013-02-12 13:11:00,44.0,33.0,30.13,SW,215,0.0,6.0,64,0.00,,,0.00,,2013-02-12 19:11:00,
2013-02-12 13:21:00,44.0,33.0,30.12,West,261,0.0,6.0,64,0.00,,,0.00,,2013-02-12 19:21:00,
2013-02-12 13:31:00,45.0,33.0,30.11,West,279,2.0,5.0,63,0.00,,,0.00,,2013-02-12 19:31:00,
2013-02-12 13:41:00,45.0,33.0,30.11,West,279,2.0,5.0,63,0.00,,,0.00,,2013-02-12 19:41:00,
2013-02-12 13:51:00,45.0,34.0,30.11,West,275,3.0,8.0,66,0.00,,,0.00,,2013-02-12 19:51:00,
2013-02-12 14:01:00,45.0,34.0,30.11,SW,233,2.0,7.0,65,0.00,,,0.00,,2013-02-12 20:01:00,
2013-02-12 14:11:00,45.0,34.0,30.11,SW,233,2.0,7.0,65,0.00,,,0.00,,2013-02-12 20:11:00,
2013-02-12 14:21:00,45.0,33.0,30.12,West,267,3.0,7.0,62,0.00,,,0.00,,2013-02-12 20:21:00,
2013-02-12 14:31:00,45.0,35.0,30.11,NW,311,0.0,6.0,67,0.00,,,0.00,,2013-02-12 20:31:00,
2013-02-12 14:41:00,45.0,35.0,30.11,NW,311,0.0,6.0,67,0.00,,,0.00,,2013-02-12 20:41:00,
2013-02-12 14:52:00,45.0,34.0,30.10,SSE,149,3.0,6.0,65,0.00,,,0.00,,2013-02-12 20:52:00,
2013-02-12 15:01:00,46.0,34.0,30.09,WSW,238,4.0,8.0,62,0.00,,,0.00,,2013-02-12 21:01:00,
2013-02-12 15:11:00,46.0,34.0,30.09,WSW,238,4.0,8.0,62,0.00,,,0.00,,2013-02-12 21:11:00,
2013-02-12 15:21:00,46.0,31.0,30.08,WNW,293,0.0,6.0,56,0.00,,,0.00,,2013-02-12 21:21:00,
2013-02-12 15:31:00,46.0,31.0,30.06,NW,304,1.0,7.0,56,0.00,,,0.00,,2013-02-12 21:31:00,
2013-02-12 15:42:00,46.0,33.0,30.06,WNW,293,1.0,6.0,60,0.00,,,0.00,,2013-02-12 21:42:00,
2013-02-12 15:51:00,46.0,33.0,30.06,WNW,293,1.0,6.0,60,0.00,,,0.00,,2013-02-12 21:51:00,
2013-02-12 16:01:00,46.0,32.0,30.05,NNW,327,0.0,5.0,59,0.00,,,0.00,,2013-02-12 22:01:00,
2013-02-12 16:12:00,46.0,32.0,30.05,NNW,327,0.0,5.0,59,0.00,,,0.00,,2013-02-12 22:12:00,
2013-02-12 16:21:00,47.0,33.0,30.04,SW,225,1.0,4.0,59,0.00,,,0.00,,2013-02-12 22:21:00,
2013-02-12 16:32:00,46.0,32.0,30.03,NW,317,0.0,4.0,59,0.00,,,0.00,,2013-02-12 22:32:00,
2013-02-12 16:42:00,46.0,32.0,30.03,NW,317,0.0,4.0,59,0.00,,,0.00,,2013-02-12 22:42:00,
2013-02-12 16:51:00,46.0,34.0,30.04,WSW,248,1.0,5.0,62,0.00,,,0.00,,2013-02-12 22:51:00,
2013-02-12 17:01:00,45.0,32.0,30.03,WNW,284,0.0,2.0,61,0.00,,,0.00,,2013-02-12 23:01:00,
2013-02-12 17:11:00,45.0,33.0,30.03,WNW,284,0.0,1.0,63,0.00,,,0.00,,2013-02-12 23:11:00,
2013-02-12 17:21:00,45.0,33.0,30.03,WNW,284,0.0,1.0,63,0.00,,,0.00,,2013-02-12 23:21:00,
2013-02-12 17:32:00,44.0,32.0,30.03,WNW,284,0.0,0.0,63,0.00,,,0.00,,2013-02-12 23:32:00,
2013-02-12 17:42:00,44.0,32.0,30.03,WNW,284,0.0,0.0,63,0.00,,,0.00,,2013-02-12 23:42:00,
2013-02-12 17:52:00,43.0,35.0,30.04,WNW,284,0.0,0.0,72,0.00,,,0.00,,2013-02-12 23:52:00,
2013-02-12 18:02:00,42.0,33.0,30.04,WNW,284,1.0,2.0,70,0.00,,,0.00,,2013-02-13 00:02:00,
2013-02-12 18:11:00,42.0,33.0,30.04,WNW,284,1.0,2.0,70,0.00,,,0.00,,2013-02-13 00:11:00,
2013-02-12 18:21:00,41.0,31.0,30.05,WNW,284,0.0,0.0,67,0.00,,,0.00,,2013-02-13 00:21:00,
2013-02-12 18:32:00,41.0,35.0,30.04,WNW,284,0.0,0.0,78,0.00,,,0.00,,2013-02-13 00:32:00,
2013-02-12 18:42:00,41.0,35.0,30.04,WNW,284,0.0,0.0,78,0.00,,,0.00,,2013-02-13 00:42:00,
2013-02-12 18:52:00,40.0,34.0,30.02,WNW,284,0.0,0.0,78,0.00,,,0.00,,2013-02-13 00:52:00,
2013-02-12 19:01:00,39.0,34.0,30.01,WNW,284,0.0,1.0,83,0.00,,,0.00,,2013-02-13 01:01:00,
2013-02-12 19:11:00,39.0,34.0,30.01,WNW,284,0.0,1.0,83,0.00,,,0.00,,2013-02-13 01:11:00,
2013-02-12 19:21:00,38.0,34.0,30.00,WNW,284,0.0,1.0,85,0.00,,,0.00,,2013-02-13 01:21:00,
2013-02-12 19:31:00,38.0,34.0,30.00,WNW,284,0.0,1.0,87,0.00,,,0.00,,2013-02-13 01:31:00,
2013-02-12 19:42:00,38.0,34.0,30.00,WNW,284,0.0,1.0,87,0.00,,,0.00,,2013-02-13 01:42:00,
2013-02-12 19:51:00,38.0,35.0,29.99,WNW,284,0.0,1.0,88,0.00,,,0.00,,2013-02-13 01:51:00,
2013-02-12 20:01:00,37.0,33.0,29.98,NW,304,1.0,2.0,86,0.00,,,0.00,,2013-02-13 02:01:00,
2013-02-12 20:11:00,37.0,33.0,29.98,NW,304,1.0,2.0,86,0.00,,,0.00,,2013-02-13 02:11:00,
2013-02-12 20:21:00,37.0,34.0,29.98,NW,304,0.0,2.0,87,0.00,,,0.00,,2013-02-13 02:21:00,
2013-02-12 20:31:00,37.0,34.0,29.99,NW,304,0.0,1.0,89,0.00,,,0.00,,2013-02-13 02:31:00,
2013-02-12 20:41:00,37.0,34.0,29.99,NW,304,0.0,1.0,89,0.00,,,0.00,,2013-02-13 02:41:00,
2013-02-12 20:52:00,37.0,34.0,29.99,NW,304,0.0,0.0,87,0.00,,,0.00,,2013-02-13 02:52:00,
2013-02-12 21:01:00,37.0,34.0,29.99,NW,304,0.0,1.0,87,0.00,,,0.00,,2013-02-13 03:01:00,
2013-02-12 21:11:00,37.0,33.0,29.98,NW,304,0.0,1.0,86,0.00,,,0.00,,2013-02-13 03:11:00,
2013-02-12 21:21:00,37.0,33.0,29.98,NW,304,0.0,1.0,86,0.00,,,0.00,,2013-02-13 03:21:00,
2013-02-12 21:32:00,37.0,34.0,29.97,NW,304,0.0,1.0,88,0.00,,,0.00,,2013-02-13 03:32:00,
2013-02-12 21:42:00,37.0,34.0,29.97,NW,304,0.0,1.0,88,0.00,,,0.00,,2013-02-13 03:42:00,
2013-02-12 21:51:00,37.0,34.0,29.98,North,351,4.0,6.0,89,0.00,,,0.00,,2013-02-13 03:51:00,
2013-02-12 22:01:00,37.0,33.0,29.96,NNE,15,4.0,6.0,84,0.00,,,0.00,,2013-02-13 04:01:00,
2013-02-12 22:11:00,37.0,33.0,29.96,NNE,15,4.0,6.0,84,0.00,,,0.00,,2013-02-13 04:11:00,
2013-02-12 22:21:00,38.0,33.0,29.97,NE,35,3.0,6.0,82,0.00,,,0.00,,2013-02-13 04:21:00,
2013-02-12 22:32:00,38.0,33.0,29.97,NE,35,3.0,6.0,82,0.00,,,0.00,,2013-02-13 04:32:00,
2013-02-12 22:41:00,38.0,33.0,29.97,NE,35,3.0,6.0,82,0.00,,,0.00,,2013-02-13 04:41:00,
2013-02-12 22:51:00,37.0,32.0,29.96,North,355,5.0,6.0,82,0.00,,,0.00,,2013-02-13 04:51:00,
2013-02-12 23:01:00,37.0,32.0,29.95,NNE,19,5.0,8.0,82,0.00,,,0.00,,2013-02-13 05:01:00,
2013-02-12 23:11:00,37.0,32.0,29.95,North,5,6.0,9.0,81,0.00,,,0.00,,2013-02-13 05:11:00,
2013-02-12 23:22:00,37.0,32.0,29.95,North,5,6.0,9.0,81,0.00,,,0.00,,2013-02-13 05:22:00,
2013-02-12 23:31:00,37.0,32.0,29.95,NNE,25,4.0,9.0,82,0.00,,,0.00,,2013-02-13 05:31:00,
2013-02-12 23:42:00,37.0,32.0,29.95,NNE,25,4.0,9.0,82,0.00,,,0.00,,2013-02-13 05:42:00,
2013-02-12 23:52:00,37.0,32.0,29.95,NNE,24,5.0,8.0,82,0.00,,,0.00,,2013-02-13 05:52:00,